Time;durP1;ratioP1;P1;durP2;ratioP2;P2;SDS_P1;SDS_P2;PMS_P1;PMS_P2;Temp;Humidity;BMP_temperature;BMP_pressure;BME280_temperature;BME280_humidity;BME280_pressure;Samples;Min_cycle;Max_cycle;Signal;HPM_P1;HPM_P2
2023/08/22 00:01:56;;;;;;;;;;;21.40;93.60;;;;;;5030489;28;20357;-76
2023/08/22 00:04:22;;;;;;;;;;;21.40;93.60;;;;;;5030676;28;19975;-77
2023/08/22 00:06:47;;;;;;;;;;;21.30;93.60;;;;;;5030236;28;19913;-77
2023/08/22 00:09:13;;;;;;;;;;;21.30;93.70;;;;;;5046208;28;20402;-77
2023/08/22 00:11:39;;;;;;;;;;;21.30;93.70;;;;;;5030390;28;19935;-77
2023/08/22 00:14:04;;;;;;;;;;;21.30;93.60;;;;;;5030888;28;19909;-76
2023/08/22 00:16:30;;;;;;;;;;;21.30;93.80;;;;;;5030282;28;19920;-77
2023/08/22 00:18:55;;;;;;;;;;;21.30;93.70;;;;;;5030602;28;19913;-77
2023/08/22 00:21:21;;;;;;;;;;;21.20;93.70;;;;;;5030362;28;19948;-76
2023/08/22 00:23:46;;;;;;;;;;;21.20;93.80;;;;;;5030574;28;19952;-76
2023/08/22 00:26:12;;;;;;;;;;;21.20;93.90;;;;;;5029582;28;20336;-76
2023/08/22 00:28:37;;;;;;;;;;;21.20;93.80;;;;;;5030352;28;19909;-77
2023/08/22 00:31:03;;;;;;;;;;;21.20;93.80;;;;;;5042896;28;19917;-77
2023/08/22 00:33:28;;;;;;;;;;;21.10;93.90;;;;;;5029071;28;19921;-77
2023/08/22 00:35:54;;;;;;;;;;;21.10;93.80;;;;;;5026037;28;20001;-77
2023/08/22 00:38:20;;;;;;;;;;;21.10;93.80;;;;;;5045425;28;20293;-77
2023/08/22 00:40:45;;;;;;;;;;;21.10;93.90;;;;;;5030177;28;19917;-77
2023/08/22 00:43:11;;;;;;;;;;;21.00;93.90;;;;;;5029909;28;19917;-77
2023/08/22 00:45:36;;;;;;;;;;;21.00;93.90;;;;;;5029890;28;19917;-77
2023/08/22 00:48:02;;;;;;;;;;;21.00;93.90;;;;;;5029903;28;20314;-77
2023/08/22 00:50:28;;;;;;;;;;;21.00;93.90;;;;;;5030212;28;19920;-76
2023/08/22 00:52:53;;;;;;;;;;;21.00;93.90;;;;;;5044561;28;21011;-77
2023/08/22 00:55:19;;;;;;;;;;;21.00;93.90;;;;;;5029154;28;19963;-77
2023/08/22 00:57:45;;;;;;;;;;;20.90;94.00;;;;;;5028466;28;19909;-77
2023/08/22 01:00:10;;;;;;;;;;;20.90;94.10;;;;;;5028541;28;19920;-77
2023/08/22 01:02:39;;;;;;;;;;;20.90;94.10;;;;;;5043753;28;19913;-77
2023/08/22 01:05:05;;;;;;;;;;;20.90;94.20;;;;;;5028100;28;20004;-76
2023/08/22 01:07:36;;;;;;;;;;;20.90;94.10;;;;;;5029197;28;19913;-77
2023/08/22 01:10:13;;;;;;;;;;;20.80;94.10;;;;;;5013040;28;20231;-77
2023/08/22 01:12:39;;;;;;;;;;;20.80;94.10;;;;;;5029403;28;19917;-76
2023/08/22 01:15:09;;;;;;;;;;;20.80;94.10;;;;;;5044860;28;19999;-77
2023/08/22 01:17:36;;;;;;;;;;;20.80;94.10;;;;;;5044142;28;19963;-77
2023/08/22 01:20:02;;;;;;;;;;;20.70;94.10;;;;;;5029743;28;19913;-77
2023/08/22 01:22:28;;;;;;;;;;;20.80;94.30;;;;;;5027772;28;19919;-77
2023/08/22 01:24:53;;;;;;;;;;;20.80;94.20;;;;;;5028431;28;19921;-77
2023/08/22 01:27:23;;;;;;;;;;;20.70;94.20;;;;;;5028850;28;19913;-76
2023/08/22 01:29:51;;;;;;;;;;;20.70;94.20;;;;;;5129601;22;19975;-71
2023/08/22 01:32:17;;;;;;;;;;;20.70;94.30;;;;;;5019804;28;20008;-70
2023/08/22 01:34:43;;;;;;;;;;;20.70;94.20;;;;;;5042580;28;20011;-71
2023/08/22 01:37:09;;;;;;;;;;;20.70;94.20;;;;;;5028955;28;19917;-71
2023/08/22 01:39:35;;;;;;;;;;;20.60;94.20;;;;;;5028956;28;19920;-71
2023/08/22 01:42:01;;;;;;;;;;;20.60;94.20;;;;;;5029671;28;20354;-71
2023/08/22 01:44:28;;;;;;;;;;;20.60;94.20;;;;;;5028597;28;19928;-71
2023/08/22 01:46:54;;;;;;;;;;;20.60;94.20;;;;;;5027201;28;19913;-71
2023/08/22 01:49:20;;;;;;;;;;;20.60;94.20;;;;;;5029051;28;19951;-71
2023/08/22 01:51:45;;;;;;;;;;;20.60;94.20;;;;;;5025560;28;19967;-71
2023/08/22 01:54:10;;;;;;;;;;;20.50;94.30;;;;;;5060921;28;19917;-71
2023/08/22 01:56:36;;;;;;;;;;;20.60;94.40;;;;;;5028390;28;19956;-71
2023/08/22 01:59:02;;;;;;;;;;;20.50;94.30;;;;;;5034893;28;20491;-71
2023/08/22 02:01:27;;;;;;;;;;;20.50;94.30;;;;;;5028561;28;19921;-71
2023/08/22 02:03:53;;;;;;;;;;;20.50;94.30;;;;;;5029739;28;19925;-71
2023/08/22 02:06:18;;;;;;;;;;;20.50;94.30;;;;;;5028291;28;19963;-71
2023/08/22 02:08:44;;;;;;;;;;;20.50;94.40;;;;;;5028704;28;19913;-71
2023/08/22 02:11:09;;;;;;;;;;;20.50;94.40;;;;;;5028445;28;19924;-71
2023/08/22 02:13:35;;;;;;;;;;;20.50;94.30;;;;;;5029143;28;19935;-71
2023/08/22 02:16:00;;;;;;;;;;;20.50;94.50;;;;;;5048200;28;19932;-71
2023/08/22 02:18:26;;;;;;;;;;;20.50;94.40;;;;;;5048538;28;19913;-71
2023/08/22 02:20:53;;;;;;;;;;;20.40;94.30;;;;;;5048340;28;19912;-71
2023/08/22 02:23:18;;;;;;;;;;;20.40;94.40;;;;;;5047017;28;19952;-70
2023/08/22 02:25:45;;;;;;;;;;;20.40;94.40;;;;;;5048139;28;19966;-71
2023/08/22 02:28:10;;;;;;;;;;;20.40;94.50;;;;;;5008536;28;19944;-71
2023/08/22 02:30:36;;;;;;;;;;;20.40;94.50;;;;;;5024702;28;19967;-71
2023/08/22 02:33:01;;;;;;;;;;;20.40;94.50;;;;;;5041829;28;20308;-70
2023/08/22 02:35:27;;;;;;;;;;;20.30;94.40;;;;;;5035656;28;19943;-71
2023/08/22 02:37:52;;;;;;;;;;;20.30;94.50;;;;;;5026124;28;19913;-71
2023/08/22 02:40:18;;;;;;;;;;;20.30;94.60;;;;;;5008480;28;20324;-71
2023/08/22 02:42:43;;;;;;;;;;;20.30;94.70;;;;;;5008560;28;19928;-71
2023/08/22 02:45:09;;;;;;;;;;;20.30;94.50;;;;;;5008342;28;19917;-71
2023/08/22 02:47:35;;;;;;;;;;;20.30;94.60;;;;;;5030225;28;19920;-71
2023/08/22 02:50:00;;;;;;;;;;;20.30;94.60;;;;;;5046782;28;20011;-71
2023/08/22 02:52:26;;;;;;;;;;;20.30;94.50;;;;;;5047776;28;19971;-71
2023/08/22 02:54:52;;;;;;;;;;;20.30;94.60;;;;;;5049372;28;19921;-71
2023/08/22 02:57:17;;;;;;;;;;;20.20;94.60;;;;;;5039031;28;19909;-71
2023/08/22 02:59:43;;;;;;;;;;;20.20;94.70;;;;;;5032268;28;19913;-71
2023/08/22 03:02:08;;;;;;;;;;;20.20;95.00;;;;;;5030585;28;19945;-71
2023/08/22 03:04:36;;;;;;;;;;;20.20;94.70;;;;;;5040620;28;20134;-71
2023/08/22 03:07:03;;;;;;;;;;;20.20;94.70;;;;;;5031621;28;19917;-71
2023/08/22 03:09:29;;;;;;;;;;;20.20;94.80;;;;;;5032167;28;19927;-71
2023/08/22 03:11:54;;;;;;;;;;;20.10;94.70;;;;;;5031816;28;19913;-71
2023/08/22 03:14:20;;;;;;;;;;;20.20;94.70;;;;;;5031893;28;19920;-71
2023/08/22 03:16:45;;;;;;;;;;;20.10;94.70;;;;;;5039467;28;19963;-71
2023/08/22 03:19:11;;;;;;;;;;;20.10;94.80;;;;;;5051758;28;19909;-71
2023/08/22 03:21:36;;;;;;;;;;;20.10;94.80;;;;;;5032240;28;19956;-71
2023/08/22 03:24:02;;;;;;;;;;;20.10;94.80;;;;;;5031751;28;19924;-71
2023/08/22 03:26:27;;;;;;;;;;;20.10;94.80;;;;;;5030004;28;20686;-71
2023/08/22 03:28:53;;;;;;;;;;;20.10;94.90;;;;;;5061841;28;19913;-71
2023/08/22 03:31:18;;;;;;;;;;;20.00;94.80;;;;;;5030931;28;19925;-71
2023/08/22 03:33:44;;;;;;;;;;;20.00;94.90;;;;;;5031664;28;19963;-71
2023/08/22 03:36:09;;;;;;;;;;;20.00;94.90;;;;;;5032092;28;19943;-71
2023/08/22 03:38:35;;;;;;;;;;;20.00;94.80;;;;;;5031580;28;19913;-71
2023/08/22 03:41:00;;;;;;;;;;;20.00;94.90;;;;;;5031235;28;19920;-71
2023/08/22 03:43:26;;;;;;;;;;;20.00;95.00;;;;;;5030709;28;19967;-71
2023/08/22 03:45:51;;;;;;;;;;;20.00;94.80;;;;;;5031144;28;19959;-71
2023/08/22 03:48:17;;;;;;;;;;;20.00;95.00;;;;;;5030964;28;19909;-71
2023/08/22 03:50:43;;;;;;;;;;;19.90;95.00;;;;;;5031406;28;19909;-71
2023/08/22 03:53:09;;;;;;;;;;;19.90;94.90;;;;;;5032201;28;20015;-71
2023/08/22 03:55:34;;;;;;;;;;;19.90;95.20;;;;;;5031077;28;20377;-70
2023/08/22 03:58:00;;;;;;;;;;;19.90;95.20;;;;;;5031046;28;20281;-71
2023/08/22 04:00:26;;;;;;;;;;;19.90;95.40;;;;;;5027828;28;19913;-71
2023/08/22 04:02:58;;;;;;;;;;;19.90;95.00;;;;;;5030826;28;19913;-71
2023/08/22 04:05:24;;;;;;;;;;;19.80;95.10;;;;;;5026676;28;19919;-71
2023/08/22 04:07:49;;;;;;;;;;;19.80;95.10;;;;;;5030098;28;19992;-71
2023/08/22 04:10:15;;;;;;;;;;;19.80;95.20;;;;;;5031754;28;19947;-71
2023/08/22 04:12:41;;;;;;;;;;;19.80;95.30;;;;;;5030741;28;19917;-71
2023/08/22 04:15:07;;;;;;;;;;;19.80;95.20;;;;;;5030747;28;19916;-71
2023/08/22 04:17:32;;;;;;;;;;;19.70;95.20;;;;;;5030357;28;19915;-71
2023/08/22 04:19:58;;;;;;;;;;;19.70;95.50;;;;;;5030746;28;19917;-71
2023/08/22 04:22:23;;;;;;;;;;;19.70;95.20;;;;;;5035416;28;19901;-71
2023/08/22 04:24:49;;;;;;;;;;;19.70;95.30;;;;;;5029135;28;19919;-70
2023/08/22 04:27:14;;;;;;;;;;;19.70;95.40;;;;;;5031093;28;19916;-71
2023/08/22 04:29:40;;;;;;;;;;;19.70;95.30;;;;;;5028677;28;20620;-71
2023/08/22 04:32:05;;;;;;;;;;;19.70;95.30;;;;;;5018501;28;20043;-71
2023/08/22 04:34:31;;;;;;;;;;;19.70;95.30;;;;;;5015164;28;19913;-70
2023/08/22 04:36:56;;;;;;;;;;;19.70;95.40;;;;;;5029925;28;19913;-71
2023/08/22 04:39:22;;;;;;;;;;;19.60;95.30;;;;;;5030293;28;19917;-71
2023/08/22 04:41:50;;;;;;;;;;;19.60;95.20;;;;;;5031152;28;20644;-71
2023/08/22 04:44:16;;;;;;;;;;;19.60;95.40;;;;;;5030162;28;20270;-71
2023/08/22 04:46:41;;;;;;;;;;;19.60;95.40;;;;;;5029736;28;19914;-71
2023/08/22 04:49:07;;;;;;;;;;;19.60;95.50;;;;;;5029106;28;19916;-71
2023/08/22 04:51:32;;;;;;;;;;;19.60;95.40;;;;;;5029337;28;19932;-71
2023/08/22 04:53:58;;;;;;;;;;;19.60;95.50;;;;;;5029477;28;19914;-70
2023/08/22 04:56:23;;;;;;;;;;;19.60;95.40;;;;;;5027829;28;20365;-71
2023/08/22 04:58:49;;;;;;;;;;;19.60;95.40;;;;;;5029027;28;19960;-71
2023/08/22 05:01:14;;;;;;;;;;;19.60;95.50;;;;;;5028883;28;20285;-71
2023/08/22 05:03:40;;;;;;;;;;;19.60;95.40;;;;;;5028871;28;19913;-70
2023/08/22 05:06:05;;;;;;;;;;;19.60;95.40;;;;;;5028017;28;19913;-71
2023/08/22 05:08:31;;;;;;;;;;;19.60;95.40;;;;;;5029697;28;19917;-71
2023/08/22 05:10:57;;;;;;;;;;;19.50;95.30;;;;;;5029680;28;19909;-71
2023/08/22 05:13:22;;;;;;;;;;;19.60;95.40;;;;;;5029592;28;19923;-71
2023/08/22 05:15:47;;;;;;;;;;;19.50;95.50;;;;;;5030194;28;20636;-71
2023/08/22 05:18:13;;;;;;;;;;;19.50;95.50;;;;;;5028418;28;19987;-71
2023/08/22 05:20:39;;;;;;;;;;;19.50;95.50;;;;;;5029165;28;19971;-70
2023/08/22 05:23:05;;;;;;;;;;;19.50;95.60;;;;;;5029235;28;19917;-71
2023/08/22 05:25:30;;;;;;;;;;;19.50;95.50;;;;;;5029924;28;20721;-71
2023/08/22 05:27:56;;;;;;;;;;;19.50;95.40;;;;;;5027783;28;19971;-70
2023/08/22 05:30:21;;;;;;;;;;;19.50;95.40;;;;;;5024116;28;19922;-71
2023/08/22 05:32:47;;;;;;;;;;;19.50;95.50;;;;;;5024297;28;20000;-71
2023/08/22 05:35:13;;;;;;;;;;;19.50;95.60;;;;;;5028617;28;19917;-71
2023/08/22 05:37:38;;;;;;;;;;;19.50;95.60;;;;;;5028619;28;19924;-71
2023/08/22 05:40:06;;;;;;;;;;;19.50;95.60;;;;;;5027888;28;19914;-71
2023/08/22 05:42:31;;;;;;;;;;;19.50;95.60;;;;;;5028934;28;19909;-71
2023/08/22 05:44:57;;;;;;;;;;;19.50;95.60;;;;;;5027678;28;20512;-71
2023/08/22 05:47:22;;;;;;;;;;;19.50;95.50;;;;;;5019352;28;19918;-71
2023/08/22 05:49:48;;;;;;;;;;;19.50;95.60;;;;;;5024634;28;19923;-71
2023/08/22 05:52:13;;;;;;;;;;;19.50;95.60;;;;;;5024240;28;19921;-71
2023/08/22 05:54:40;;;;;;;;;;;19.50;95.60;;;;;;5021864;28;20373;-71
2023/08/22 05:57:05;;;;;;;;;;;19.50;95.60;;;;;;5027733;28;19913;-70
2023/08/22 05:59:31;;;;;;;;;;;19.50;95.60;;;;;;5027991;28;20388;-71
2023/08/22 06:01:56;;;;;;;;;;;19.50;95.60;;;;;;5028712;28;19918;-71
2023/08/22 06:04:22;;;;;;;;;;;19.50;95.60;;;;;;5028730;28;20527;-71
2023/08/22 06:06:47;;;;;;;;;;;19.50;95.60;;;;;;5037716;28;19917;-71
2023/08/22 06:09:13;;;;;;;;;;;19.50;95.50;;;;;;5028613;28;20673;-71
2023/08/22 06:11:38;;;;;;;;;;;19.50;95.50;;;;;;5027727;28;20054;-71
2023/08/22 06:14:04;;;;;;;;;;;19.50;95.50;;;;;;5027982;28;19921;-70
2023/08/22 06:16:30;;;;;;;;;;;19.50;95.40;;;;;;5027220;28;19921;-71
2023/08/22 06:18:55;;;;;;;;;;;19.50;95.40;;;;;;5027159;28;19967;-71
2023/08/22 06:21:21;;;;;;;;;;;19.50;95.40;;;;;;5028472;28;19913;-71
2023/08/22 06:23:46;;;;;;;;;;;19.50;95.40;;;;;;5025234;28;19917;-71
2023/08/22 06:26:13;;;;;;;;;;;19.50;95.30;;;;;;5024603;28;20009;-71
2023/08/22 06:28:39;;;;;;;;;;;19.50;95.40;;;;;;5027676;28;19913;-71
2023/08/22 06:31:05;;;;;;;;;;;19.50;95.40;;;;;;5029689;28;19932;-71
2023/08/22 06:33:31;;;;;;;;;;;19.50;95.30;;;;;;5047297;28;19929;-71
2023/08/22 06:35:56;;;;;;;;;;;19.60;95.40;;;;;;5030989;28;19979;-70
2023/08/22 06:38:22;;;;;;;;;;;19.60;95.30;;;;;;5027643;28;19909;-71
2023/08/22 06:40:48;;;;;;;;;;;19.60;95.30;;;;;;5026989;28;19935;-71
2023/08/22 06:43:14;;;;;;;;;;;19.60;95.30;;;;;;5015337;28;19920;-71
2023/08/22 06:45:39;;;;;;;;;;;19.60;95.30;;;;;;5007587;28;19913;-71
2023/08/22 06:48:05;;;;;;;;;;;19.60;95.20;;;;;;5015756;28;19921;-70
2023/08/22 06:50:30;;;;;;;;;;;19.60;95.30;;;;;;5027489;28;19924;-71
2023/08/22 06:52:56;;;;;;;;;;;19.60;95.20;;;;;;5027434;28;19917;-71
2023/08/22 06:55:21;;;;;;;;;;;19.70;95.20;;;;;;5027214;28;20011;-70
2023/08/22 06:57:47;;;;;;;;;;;19.70;95.20;;;;;;5027276;28;19913;-71
2023/08/22 07:00:16;;;;;;;;;;;19.70;95.10;;;;;;5027614;28;19913;-71
2023/08/22 07:02:43;;;;;;;;;;;19.70;95.10;;;;;;5027224;28;19975;-71
2023/08/22 07:05:09;;;;;;;;;;;19.70;95.10;;;;;;5029460;28;19995;-71
2023/08/22 07:07:35;;;;;;;;;;;19.80;95.00;;;;;;5026947;28;20363;-71
2023/08/22 07:10:00;;;;;;;;;;;19.80;94.90;;;;;;5027513;28;19917;-71
2023/08/22 07:12:26;;;;;;;;;;;19.90;95.00;;;;;;5027392;28;19924;-71
2023/08/22 07:14:51;;;;;;;;;;;19.90;94.90;;;;;;5027247;28;19917;-70
2023/08/22 07:17:17;;;;;;;;;;;20.00;94.90;;;;;;5027108;28;20416;-71
2023/08/22 07:19:42;;;;;;;;;;;20.00;94.80;;;;;;5025651;28;19920;-71
2023/08/22 07:22:08;;;;;;;;;;;20.00;94.80;;;;;;5046164;28;19923;-71
2023/08/22 07:24:33;;;;;;;;;;;20.00;94.80;;;;;;5036979;28;20374;-71
2023/08/22 07:26:59;;;;;;;;;;;20.10;94.70;;;;;;5017132;28;20416;-70
2023/08/22 07:29:24;;;;;;;;;;;20.10;94.70;;;;;;5025432;28;19917;-71
2023/08/22 07:31:50;;;;;;;;;;;20.10;94.60;;;;;;5026817;28;19913;-70
2023/08/22 07:34:16;;;;;;;;;;;20.10;94.60;;;;;;5027166;28;20354;-71
2023/08/22 07:36:41;;;;;;;;;;;20.10;94.60;;;;;;5027893;28;19995;-71
2023/08/22 07:39:07;;;;;;;;;;;20.10;94.60;;;;;;5026773;28;19916;-71
2023/08/22 07:41:32;;;;;;;;;;;20.20;94.60;;;;;;5027664;28;19913;-71
2023/08/22 07:43:58;;;;;;;;;;;20.20;94.50;;;;;;5030892;28;19944;-71
2023/08/22 07:46:23;;;;;;;;;;;20.20;94.50;;;;;;5030450;28;19970;-71
2023/08/22 07:48:49;;;;;;;;;;;20.20;94.50;;;;;;5030512;28;20316;-71
2023/08/22 07:51:14;;;;;;;;;;;20.30;94.40;;;;;;5030321;28;19924;-71
2023/08/22 07:53:40;;;;;;;;;;;20.30;94.40;;;;;;5031388;28;19921;-70
2023/08/22 07:56:06;;;;;;;;;;;20.30;94.30;;;;;;5030062;28;19913;-70
2023/08/22 07:58:31;;;;;;;;;;;20.40;94.30;;;;;;5027185;28;19919;-71
2023/08/22 08:00:57;;;;;;;;;;;20.40;94.30;;;;;;5030480;28;19916;-70
2023/08/22 08:03:22;;;;;;;;;;;20.40;94.30;;;;;;5029729;28;20007;-71
2023/08/22 08:05:48;;;;;;;;;;;20.50;94.20;;;;;;5029694;28;19921;-71
2023/08/22 08:08:14;;;;;;;;;;;20.50;94.20;;;;;;5029623;28;19914;-71
2023/08/22 08:10:39;;;;;;;;;;;20.60;94.10;;;;;;5029533;28;19917;-71
2023/08/22 08:13:05;;;;;;;;;;;20.60;94.10;;;;;;5029759;28;19925;-70
2023/08/22 08:15:30;;;;;;;;;;;20.60;94.00;;;;;;5029452;28;20246;-71
2023/08/22 08:17:58;;;;;;;;;;;20.70;94.10;;;;;;5029771;28;20242;-71
2023/08/22 08:20:24;;;;;;;;;;;20.70;93.90;;;;;;5029619;28;20362;-71
2023/08/22 08:22:50;;;;;;;;;;;20.80;93.90;;;;;;5029210;28;19913;-71
2023/08/22 08:25:15;;;;;;;;;;;20.80;94.00;;;;;;5029308;28;19913;-71
2023/08/22 08:27:41;;;;;;;;;;;20.90;93.90;;;;;;5029562;28;19917;-71
2023/08/22 08:30:06;;;;;;;;;;;20.90;93.70;;;;;;5026832;28;19953;-71
2023/08/22 08:32:32;;;;;;;;;;;21.00;93.70;;;;;;5028666;28;19917;-71
2023/08/22 08:34:58;;;;;;;;;;;21.00;93.70;;;;;;5025493;28;19913;-71
2023/08/22 08:37:23;;;;;;;;;;;21.20;93.60;;;;;;5028511;28;20513;-71
2023/08/22 08:39:49;;;;;;;;;;;21.20;93.50;;;;;;5029214;28;19913;-70
2023/08/22 08:42:14;;;;;;;;;;;21.30;93.50;;;;;;5033132;28;19921;-71
2023/08/22 08:44:40;;;;;;;;;;;21.40;93.60;;;;;;5040977;28;19913;-71
2023/08/22 08:47:06;;;;;;;;;;;21.40;93.40;;;;;;5027928;28;19920;-71
2023/08/22 08:49:32;;;;;;;;;;;21.50;93.40;;;;;;5029196;28;20338;-71
2023/08/22 08:52:00;;;;;;;;;;;21.60;93.40;;;;;;5028806;28;20623;-71
2023/08/22 08:54:27;;;;;;;;;;;21.60;93.30;;;;;;5029409;28;19956;-71
2023/08/22 08:56:52;;;;;;;;;;;21.70;93.20;;;;;;5029131;28;19920;-71
2023/08/22 08:59:18;;;;;;;;;;;21.80;93.10;;;;;;5027464;28;19913;-70
2023/08/22 09:01:45;;;;;;;;;;;21.90;93.00;;;;;;5028953;28;19913;-71
2023/08/22 09:04:10;;;;;;;;;;;21.90;93.00;;;;;;5029807;28;19913;-71
2023/08/22 09:06:37;;;;;;;;;;;21.90;92.90;;;;;;5029180;28;19915;-71
2023/08/22 09:09:07;;;;;;;;;;;22.00;92.90;;;;;;5040701;28;20322;-72
2023/08/22 09:11:33;;;;;;;;;;;22.10;92.90;;;;;;5049139;28;20617;-71
2023/08/22 09:13:58;;;;;;;;;;;22.20;92.80;;;;;;5046447;28;20428;-71
2023/08/22 09:16:25;;;;;;;;;;;22.20;92.80;;;;;;5047913;28;20023;-71
2023/08/22 09:18:50;;;;;;;;;;;22.30;92.80;;;;;;5048101;28;19912;-72
2023/08/22 09:21:16;;;;;;;;;;;22.30;92.70;;;;;;5049418;28;20411;-71
2023/08/22 09:23:42;;;;;;;;;;;22.30;92.50;;;;;;5040494;28;19920;-71
2023/08/22 09:26:09;;;;;;;;;;;22.40;92.50;;;;;;5044333;28;19912;-72
2023/08/22 09:28:39;;;;;;;;;;;22.50;92.20;;;;;;5060986;28;20642;-71
2023/08/22 09:31:05;;;;;;;;;;;22.50;92.30;;;;;;5028646;28;19925;-72
2023/08/22 09:33:43;;;;;;;;;;;22.60;92.30;;;;;;5029201;28;19917;-72
2023/08/22 09:36:09;;;;;;;;;;;22.70;92.30;;;;;;5028816;28;19917;-72
2023/08/22 09:38:49;;;;;;;;;;;22.70;92.30;;;;;;5030312;28;19921;-72
2023/08/22 09:41:20;;;;;;;;;;;22.70;92.30;;;;;;5027838;28;19916;-72
2023/08/22 09:43:46;;;;;;;;;;;22.90;92.20;;;;;;5027540;28;19971;-70
2023/08/22 09:46:12;;;;;;;;;;;22.90;92.10;;;;;;5028637;28;19913;-71
2023/08/22 09:48:39;;;;;;;;;;;23.00;92.00;;;;;;5028645;28;20327;-71
2023/08/22 09:51:09;;;;;;;;;;;23.10;91.90;;;;;;5028979;28;19913;-71
2023/08/22 09:53:35;;;;;;;;;;;23.10;91.90;;;;;;5028610;28;19963;-71
2023/08/22 09:56:00;;;;;;;;;;;23.20;91.90;;;;;;5037693;28;20015;-71
2023/08/22 09:58:28;;;;;;;;;;;23.20;91.90;;;;;;5043535;28;19999;-71
2023/08/22 10:00:55;;;;;;;;;;;23.20;92.00;;;;;;5048807;28;20395;-72
2023/08/22 10:03:21;;;;;;;;;;;23.20;91.90;;;;;;5048416;28;19919;-72
2023/08/22 10:05:49;;;;;;;;;;;23.30;91.80;;;;;;5032984;28;19913;-72
2023/08/22 10:08:15;;;;;;;;;;;23.40;91.80;;;;;;5017308;28;19921;-71
2023/08/22 10:10:42;;;;;;;;;;;23.50;91.40;;;;;;5028704;28;19920;-71
2023/08/22 10:13:09;;;;;;;;;;;23.60;91.60;;;;;;5048434;28;19920;-72
2023/08/22 10:15:35;;;;;;;;;;;23.60;91.10;;;;;;5046828;28;19916;-72
2023/08/22 10:18:01;;;;;;;;;;;23.70;91.20;;;;;;5048443;28;19909;-72
2023/08/22 10:20:27;;;;;;;;;;;23.70;91.20;;;;;;5048524;28;19909;-71
2023/08/22 10:22:52;;;;;;;;;;;23.80;91.20;;;;;;5048418;28;19913;-71
2023/08/22 10:25:18;;;;;;;;;;;23.90;91.00;;;;;;5048505;28;19928;-71
2023/08/22 10:27:47;;;;;;;;;;;23.80;91.00;;;;;;5032946;28;20317;-72
2023/08/22 10:30:13;;;;;;;;;;;23.80;91.20;;;;;;5026368;28;19944;-72
2023/08/22 10:32:39;;;;;;;;;;;23.90;91.10;;;;;;5027972;28;20452;-72
2023/08/22 10:35:12;;;;;;;;;;;23.90;91.00;;;;;;5028352;28;20385;-72
2023/08/22 10:37:47;;;;;;;;;;;23.90;91.20;;;;;;5028365;28;19909;-72
2023/08/22 10:40:20;;;;;;;;;;;23.90;91.10;;;;;;5028608;28;20354;-72
2023/08/22 10:42:50;;;;;;;;;;;23.90;91.10;;;;;;5015924;28;19967;-72
2023/08/22 10:45:16;;;;;;;;;;;24.00;91.20;;;;;;5026887;28;19921;-72
2023/08/22 10:47:42;;;;;;;;;;;24.00;91.20;;;;;;5026707;28;20550;-72
2023/08/22 10:50:11;;;;;;;;;;;24.10;91.00;;;;;;5027259;28;20004;-72
2023/08/22 10:52:38;;;;;;;;;;;24.10;90.90;;;;;;5027273;28;19913;-72
2023/08/22 10:55:10;;;;;;;;;;;24.10;90.90;;;;;;5028016;28;20007;-72
2023/08/22 10:57:46;;;;;;;;;;;24.10;90.90;;;;;;5059944;28;19909;-72
2023/08/22 11:00:17;;;;;;;;;;;24.30;90.90;;;;;;5033281;28;19940;-70
2023/08/22 11:02:43;;;;;;;;;;;24.30;90.80;;;;;;5034461;28;19913;-70
2023/08/22 11:05:13;;;;;;;;;;;24.50;90.70;;;;;;5027907;28;19927;-70
2023/08/22 11:07:41;;;;;;;;;;;24.60;90.20;;;;;;5027760;28;19948;-70
2023/08/22 11:10:08;;;;;;;;;;;24.50;90.70;;;;;;5028111;28;19910;-70
2023/08/22 11:12:33;;;;;;;;;;;24.50;90.60;;;;;;5027908;28;19924;-70
2023/08/22 11:14:59;;;;;;;;;;;24.50;90.70;;;;;;5027893;28;19917;-70
2023/08/22 11:17:25;;;;;;;;;;;24.50;90.70;;;;;;5030802;28;19975;-70
2023/08/22 11:19:52;;;;;;;;;;;24.40;90.60;;;;;;5033576;28;20031;-71
2023/08/22 11:22:17;;;;;;;;;;;24.40;90.90;;;;;;5050551;28;19913;-70
2023/08/22 11:24:43;;;;;;;;;;;24.50;90.90;;;;;;5033042;28;19913;-71
2023/08/22 11:27:09;;;;;;;;;;;24.50;90.90;;;;;;5062836;28;19913;-70
2023/08/22 11:29:43;;;;;;;;;;;24.50;90.80;;;;;;5029772;28;19925;-70
2023/08/22 11:32:20;;;;;;;;;;;24.60;90.70;;;;;;5062593;28;19925;-70
2023/08/22 11:34:46;;;;;;;;;;;24.70;90.50;;;;;;5032281;28;19944;-70
2023/08/22 11:37:12;;;;;;;;;;;24.80;90.40;;;;;;5029748;28;19909;-70
2023/08/22 11:39:38;;;;;;;;;;;24.90;90.40;;;;;;5031403;28;20511;-71
2023/08/22 11:42:04;;;;;;;;;;;24.90;90.40;;;;;;5031327;28;20327;-72
2023/08/22 11:44:29;;;;;;;;;;;24.90;90.10;;;;;;5046021;28;19913;-70
2023/08/22 11:46:55;;;;;;;;;;;25.00;90.20;;;;;;5031062;28;19966;-70
2023/08/22 11:49:20;;;;;;;;;;;25.00;90.30;;;;;;5031225;28;19960;-70
2023/08/22 11:51:51;;;;;;;;;;;25.00;90.10;;;;;;5030994;28;19955;-70
2023/08/22 11:54:25;;;;;;;;;;;25.10;89.50;;;;;;5030539;28;20036;-70
2023/08/22 11:56:53;;;;;;;;;;;25.20;89.40;;;;;;5030864;28;19909;-70
2023/08/22 11:59:18;;;;;;;;;;;25.30;89.40;;;;;;5045528;28;19921;-70
2023/08/22 12:01:44;;;;;;;;;;;25.30;89.90;;;;;;5028231;28;19991;-70
2023/08/22 12:04:09;;;;;;;;;;;25.30;88.90;;;;;;5012635;28;20400;-70
2023/08/22 12:06:35;;;;;;;;;;;25.30;88.90;;;;;;5030553;28;20312;-70
2023/08/22 12:09:00;;;;;;;;;;;25.30;89.70;;;;;;5030937;28;19913;-70
2023/08/22 12:11:26;;;;;;;;;;;25.30;89.50;;;;;;5029755;28;19909;-70
2023/08/22 12:13:52;;;;;;;;;;;25.30;89.90;;;;;;5048839;28;20509;-70
2023/08/22 12:16:18;;;;;;;;;;;25.40;89.00;;;;;;5050306;28;19909;-69
2023/08/22 12:18:43;;;;;;;;;;;25.40;88.80;;;;;;5050341;28;19913;-71
2023/08/22 12:21:09;;;;;;;;;;;25.40;89.00;;;;;;5050627;28;19913;-71
2023/08/22 12:23:34;;;;;;;;;;;25.40;89.70;;;;;;5050512;28;19916;-70
2023/08/22 12:26:00;;;;;;;;;;;25.50;89.70;;;;;;5048200;28;20605;-70
2023/08/22 12:28:26;;;;;;;;;;;25.50;88.20;;;;;;5031092;28;19913;-70
2023/08/22 12:30:51;;;;;;;;;;;25.60;88.90;;;;;;5028614;28;19925;-70
2023/08/22 12:33:17;;;;;;;;;;;25.70;88.30;;;;;;5030289;28;19921;-70
2023/08/22 12:35:43;;;;;;;;;;;25.70;88.90;;;;;;5030146;28;19916;-70
2023/08/22 12:38:08;;;;;;;;;;;25.80;89.10;;;;;;5030213;28;19957;-70
2023/08/22 12:40:34;;;;;;;;;;;25.80;88.80;;;;;;5030370;28;19948;-70
2023/08/22 12:43:00;;;;;;;;;;;25.90;88.60;;;;;;5023553;28;19956;-70
2023/08/22 12:45:26;;;;;;;;;;;26.00;87.40;;;;;;5035171;28;19916;-70
2023/08/22 12:47:51;;;;;;;;;;;26.10;88.50;;;;;;5048520;28;19964;-71
2023/08/22 12:50:17;;;;;;;;;;;26.20;88.40;;;;;;5043730;28;20000;-70
2023/08/22 12:52:42;;;;;;;;;;;26.30;88.30;;;;;;5030107;28;19913;-70
2023/08/22 12:55:08;;;;;;;;;;;26.40;87.90;;;;;;5029701;28;20008;-70
2023/08/22 12:57:38;;;;;;;;;;;26.40;88.20;;;;;;5029534;28;19959;-70
2023/08/22 13:00:04;;;;;;;;;;;26.50;88.70;;;;;;5029936;28;20377;-70
2023/08/22 13:02:29;;;;;;;;;;;26.60;87.60;;;;;;5047579;28;19917;-70
2023/08/22 13:04:55;;;;;;;;;;;26.70;87.10;;;;;;5042011;28;19913;-70
2023/08/22 13:07:20;;;;;;;;;;;26.70;87.00;;;;;;5028773;28;19913;-70
2023/08/22 13:09:46;;;;;;;;;;;26.70;86.80;;;;;;5028283;28;19975;-70
2023/08/22 13:12:11;;;;;;;;;;;26.70;86.70;;;;;;5029507;28;20039;-71
2023/08/22 13:14:37;;;;;;;;;;;26.70;87.00;;;;;;5029275;28;20616;-70
2023/08/22 13:17:03;;;;;;;;;;;26.70;86.90;;;;;;5030165;28;19928;-71
2023/08/22 13:19:29;;;;;;;;;;;26.80;86.50;;;;;;5036063;28;20356;-71
2023/08/22 13:21:55;;;;;;;;;;;26.90;85.80;;;;;;5049266;28;19948;-71
2023/08/22 13:24:20;;;;;;;;;;;26.80;86.20;;;;;;5048203;28;19940;-71
2023/08/22 13:26:46;;;;;;;;;;;26.80;86.50;;;;;;5039344;28;19909;-71
2023/08/22 13:29:11;;;;;;;;;;;26.80;86.60;;;;;;5028946;28;20453;-70
2023/08/22 13:31:37;;;;;;;;;;;26.80;86.80;;;;;;5029047;28;19913;-71
2023/08/22 13:34:03;;;;;;;;;;;26.80;86.40;;;;;;5029711;28;19913;-71
2023/08/22 13:36:29;;;;;;;;;;;26.80;86.40;;;;;;5022686;28;20016;-71
2023/08/22 13:38:59;;;;;;;;;;;26.70;86.60;;;;;;5027481;28;21489;-71
2023/08/22 13:41:25;;;;;;;;;;;26.70;86.40;;;;;;5029221;28;19919;-71
2023/08/22 13:43:51;;;;;;;;;;;26.70;85.70;;;;;;5028758;28;20019;-71
2023/08/22 13:46:16;;;;;;;;;;;26.70;86.20;;;;;;5028891;28;19959;-71
2023/08/22 13:48:42;;;;;;;;;;;26.70;86.00;;;;;;5029395;28;19916;-71
2023/08/22 13:51:10;;;;;;;;;;;26.70;85.40;;;;;;5033473;28;19910;-72
2023/08/22 13:53:35;;;;;;;;;;;26.80;86.20;;;;;;5033276;28;19923;-72
2023/08/22 13:56:01;;;;;;;;;;;26.80;86.10;;;;;;5033581;28;20000;-71
2023/08/22 13:58:27;;;;;;;;;;;26.80;85.80;;;;;;5032882;28;19915;-71
2023/08/22 14:00:52;;;;;;;;;;;26.80;86.00;;;;;;5032842;28;20419;-71
2023/08/22 14:03:18;;;;;;;;;;;26.90;85.70;;;;;;5031524;28;19916;-71
2023/08/22 14:05:43;;;;;;;;;;;26.90;85.50;;;;;;5032579;28;19915;-71
2023/08/22 14:08:09;;;;;;;;;;;27.00;85.50;;;;;;5032624;28;19910;-71
2023/08/22 14:10:34;;;;;;;;;;;26.90;85.70;;;;;;5032611;28;20077;-71